Time;durP1;ratioP1;P1;durP2;ratioP2;P2;SDS_P1;SDS_P2;PMS_P1;PMS_P2;Temp;Humidity;BMP_temperature;BMP_pressure;BME280_temperature;BME280_humidity;BME280_pressure;Samples;Min_cycle;Max_cycle;Signal;HPM_P1;HPM_P2
2022/05/16 00:00:09;;;;;;;;;;;20.80;61.20;;;;;;4937185;29;19952;-61
2022/05/16 00:02:35;;;;;;;;;;;20.70;61.30;;;;;;4937265;29;19941;-61
2022/05/16 00:05:01;;;;;;;;;;;20.70;61.90;;;;;;4937210;29;19954;-60
2022/05/16 00:07:26;;;;;;;;;;;20.50;62.80;;;;;;4937225;29;19911;-60
2022/05/16 00:09:52;;;;;;;;;;;20.40;63.40;;;;;;4937203;29;19911;-60
2022/05/16 00:12:17;;;;;;;;;;;20.30;63.40;;;;;;4936961;29;20027;-60
2022/05/16 00:14:44;;;;;;;;;;;20.30;63.50;;;;;;4937215;29;19921;-60
2022/05/16 00:17:10;;;;;;;;;;;20.20;63.50;;;;;;4936835;29;19907;-60
2022/05/16 00:19:35;;;;;;;;;;;20.30;63.60;;;;;;4936913;29;20299;-60
2022/05/16 00:22:01;;;;;;;;;;;20.30;63.30;;;;;;4936710;29;19911;-61
2022/05/16 00:24:28;;;;;;;;;;;20.30;62.30;;;;;;4936651;29;19918;-60
2022/05/16 00:26:54;;;;;;;;;;;20.40;62.20;;;;;;4936766;29;19927;-61
2022/05/16 00:29:20;;;;;;;;;;;20.40;62.20;;;;;;4936413;29;20382;-61
2022/05/16 00:31:46;;;;;;;;;;;20.40;62.50;;;;;;4936795;29;19919;-61
2022/05/16 00:34:12;;;;;;;;;;;20.40;62.20;;;;;;4936678;29;19915;-61
2022/05/16 00:36:38;;;;;;;;;;;20.40;62.00;;;;;;4937000;29;20382;-60
2022/05/16 00:39:03;;;;;;;;;;;20.50;61.80;;;;;;4936913;29;19943;-61
2022/05/16 00:41:29;;;;;;;;;;;20.40;62.10;;;;;;4936498;29;19911;-61
2022/05/16 00:43:57;;;;;;;;;;;20.40;62.50;;;;;;4936367;29;19911;-60
2022/05/16 00:46:30;;;;;;;;;;;20.40;62.20;;;;;;4937010;29;19959;-61
2022/05/16 00:48:56;;;;;;;;;;;20.40;62.10;;;;;;4936876;29;20354;-61
2022/05/16 00:51:21;;;;;;;;;;;20.30;62.40;;;;;;4936477;29;19951;-61
2022/05/16 00:53:49;;;;;;;;;;;20.30;62.30;;;;;;4936601;29;19918;-60
2022/05/16 00:56:14;;;;;;;;;;;20.30;62.50;;;;;;4936556;29;19991;-61
2022/05/16 00:58:41;;;;;;;;;;;20.30;62.50;;;;;;4936388;29;20355;-60
2022/05/16 01:04:47;;;;;;;;;;;20.30;62.20;;;;;;4936312;29;19911;-60
2022/05/16 01:06:39;;;;;;;;;;;20.20;62.60;;;;;;4936295;29;19966;-61
2022/05/16 01:09:05;;;;;;;;;;;20.40;62.10;;;;;;4936662;29;19950;-61
2022/05/16 01:11:31;;;;;;;;;;;20.40;62.60;;;;;;4936135;29;19965;-62
2022/05/16 01:13:56;;;;;;;;;;;20.30;62.40;;;;;;4936534;29;20307;-62
2022/05/16 01:16:22;;;;;;;;;;;20.20;62.70;;;;;;4936630;29;20001;-63
2022/05/16 01:18:48;;;;;;;;;;;20.20;62.70;;;;;;4936464;29;19968;-62
2022/05/16 01:21:16;;;;;;;;;;;20.30;62.40;;;;;;4936069;29;20359;-62
2022/05/16 01:24:17;;;;;;;;;;;20.10;63.20;;;;;;4936261;29;20005;-61
2022/05/16 01:26:42;;;;;;;;;;;20.10;63.60;;;;;;4915066;29;19927;-62
2022/05/16 01:29:09;;;;;;;;;;;20.00;63.90;;;;;;4931812;29;19982;-61
2022/05/16 01:31:35;;;;;;;;;;;20.00;63.60;;;;;;4936071;29;20387;-61
2022/05/16 01:34:00;;;;;;;;;;;20.00;64.20;;;;;;4936194;29;20648;-60
2022/05/16 01:36:26;;;;;;;;;;;19.90;64.80;;;;;;4936371;29;20018;-62
2022/05/16 01:38:52;;;;;;;;;;;19.90;64.90;;;;;;4936363;29;20263;-61
2022/05/16 01:41:19;;;;;;;;;;;19.90;64.50;;;;;;4936190;29;19911;-60
2022/05/16 01:43:47;;;;;;;;;;;20.10;62.60;;;;;;4939705;29;19911;-62
2022/05/16 01:46:14;;;;;;;;;;;20.10;61.90;;;;;;4939666;29;19915;-62
2022/05/16 01:48:40;;;;;;;;;;;20.20;61.60;;;;;;4939854;29;20374;-62
2022/05/16 01:51:08;;;;;;;;;;;20.20;61.80;;;;;;4939723;29;19918;-60
2022/05/16 01:53:33;;;;;;;;;;;20.20;61.40;;;;;;4939506;29;19958;-61
2022/05/16 01:55:59;;;;;;;;;;;20.20;61.30;;;;;;4939556;29;19911;-60
2022/05/16 01:58:25;;;;;;;;;;;20.10;61.90;;;;;;4939547;29;20390;-62
2022/05/16 02:00:51;;;;;;;;;;;20.20;61.80;;;;;;4939487;29;20256;-61
2022/05/16 02:03:16;;;;;;;;;;;20.20;61.90;;;;;;4939287;29;19911;-62
2022/05/16 02:05:43;;;;;;;;;;;20.20;61.70;;;;;;4939474;29;20071;-62
2022/05/16 02:08:08;;;;;;;;;;;20.30;61.20;;;;;;4939475;29;19934;-61
2022/05/16 02:10:34;;;;;;;;;;;20.20;62.30;;;;;;4939328;29;20371;-61
2022/05/16 02:13:01;;;;;;;;;;;20.10;63.10;;;;;;4939148;29;19969;-62
2022/05/16 02:15:28;;;;;;;;;;;20.10;63.60;;;;;;4939289;29;19911;-61
2022/05/16 02:17:53;;;;;;;;;;;20.00;64.30;;;;;;4939284;29;19911;-61
2022/05/16 02:20:19;;;;;;;;;;;19.90;64.80;;;;;;4939159;29;20391;-61
2022/05/16 02:25:31;;;;;;;;;;;19.90;64.20;;;;;;4938859;29;19925;-61
2022/05/16 02:27:56;;;;;;;;;;;19.90;63.70;;;;;;4938861;29;19976;-61
2022/05/16 02:30:22;;;;;;;;;;;19.90;63.10;;;;;;4938916;29;19914;-62
2022/05/16 02:32:48;;;;;;;;;;;20.00;63.20;;;;;;4938907;29;20005;-59
2022/05/16 02:35:14;;;;;;;;;;;20.00;63.20;;;;;;4938864;29;19915;-59
2022/05/16 02:37:39;;;;;;;;;;;20.00;63.30;;;;;;4938799;29;19918;-59
2022/05/16 02:40:06;;;;;;;;;;;20.00;63.20;;;;;;4939080;29;20275;-60
2022/05/16 02:42:32;;;;;;;;;;;20.00;63.90;;;;;;4938673;29;20005;-61
2022/05/16 02:44:57;;;;;;;;;;;19.90;63.90;;;;;;4938763;29;19953;-60
2022/05/16 02:47:23;;;;;;;;;;;19.80;63.80;;;;;;4938760;29;19918;-62
2022/05/16 02:49:49;;;;;;;;;;;19.90;63.80;;;;;;4938523;29;19966;-60
2022/05/16 02:52:14;;;;;;;;;;;19.80;64.30;;;;;;4938010;29;19919;-60
2022/05/16 02:54:40;;;;;;;;;;;19.80;64.50;;;;;;4938319;29;20360;-60
2022/05/16 02:57:06;;;;;;;;;;;19.90;63.60;;;;;;4938306;29;20065;-62
2022/05/16 02:59:32;;;;;;;;;;;20.00;63.40;;;;;;4938445;29;19911;-61
2022/05/16 03:02:03;;;;;;;;;;;19.80;64.00;;;;;;4938317;29;20018;-61
2022/05/16 03:04:29;;;;;;;;;;;19.80;64.30;;;;;;4938272;29;20038;-61
2022/05/16 03:06:54;;;;;;;;;;;19.80;64.50;;;;;;4938349;29;19954;-61
2022/05/16 03:09:21;;;;;;;;;;;19.70;64.70;;;;;;4938218;29;20422;-62
2022/05/16 03:11:46;;;;;;;;;;;19.80;64.40;;;;;;4938144;29;20014;-62
2022/05/16 03:14:12;;;;;;;;;;;19.80;64.60;;;;;;4938237;29;19974;-59
2022/05/16 03:16:38;;;;;;;;;;;19.70;64.50;;;;;;4938099;29;19911;-59
2022/05/16 03:19:03;;;;;;;;;;;19.70;65.30;;;;;;4938147;29;19918;-60
2022/05/16 03:21:30;;;;;;;;;;;19.70;65.20;;;;;;4938076;29;19917;-61
2022/05/16 03:23:56;;;;;;;;;;;19.80;64.70;;;;;;4938234;29;19915;-59
2022/05/16 03:26:21;;;;;;;;;;;19.90;64.00;;;;;;4937565;29;19926;-60
2022/05/16 03:28:47;;;;;;;;;;;19.90;63.60;;;;;;4938105;29;19967;-63
2022/05/16 03:31:12;;;;;;;;;;;19.90;64.30;;;;;;4937698;29;19918;-60
2022/05/16 03:33:38;;;;;;;;;;;19.90;65.30;;;;;;4937872;29;19922;-59
2022/05/16 03:36:03;;;;;;;;;;;19.90;64.40;;;;;;4937735;29;20001;-62
2022/05/16 03:41:13;;;;;;;;;;;19.90;64.10;;;;;;4937500;29;19966;-60
2022/05/16 03:43:40;;;;;;;;;;;19.90;64.20;;;;;;4937592;29;19915;-59
2022/05/16 03:46:06;;;;;;;;;;;19.90;64.30;;;;;;4937701;29;19911;-61
2022/05/16 03:48:32;;;;;;;;;;;19.90;64.80;;;;;;4937623;29;19911;-61
2022/05/16 03:50:58;;;;;;;;;;;19.90;64.50;;;;;;4937509;29;20363;-61
2022/05/16 03:53:24;;;;;;;;;;;19.80;64.80;;;;;;4920378;29;20339;-60
2022/05/16 03:55:49;;;;;;;;;;;19.80;64.30;;;;;;4937740;29;19911;-61
2022/05/16 03:58:15;;;;;;;;;;;19.90;64.00;;;;;;4937487;29;19914;-61
2022/05/16 04:00:41;;;;;;;;;;;19.90;64.10;;;;;;4937295;29;19911;-61
2022/05/16 04:03:07;;;;;;;;;;;19.90;64.10;;;;;;4937110;29;19950;-61
2022/05/16 04:05:33;;;;;;;;;;;19.80;64.20;;;;;;4936675;29;19967;-61
2022/05/16 04:07:58;;;;;;;;;;;19.90;64.20;;;;;;4937150;29;19911;-61
2022/05/16 04:10:24;;;;;;;;;;;19.90;63.80;;;;;;4936959;29;19950;-61
2022/05/16 04:12:50;;;;;;;;;;;19.90;63.80;;;;;;4936941;29;19915;-61
2022/05/16 04:15:15;;;;;;;;;;;20.00;63.70;;;;;;4937174;29;20283;-61
2022/05/16 04:17:41;;;;;;;;;;;20.10;63.30;;;;;;4937029;29;19915;-60
2022/05/16 04:20:07;;;;;;;;;;;20.10;63.40;;;;;;4936920;29;19927;-61
2022/05/16 04:22:33;;;;;;;;;;;20.10;63.50;;;;;;4937008;29;19911;-59
2022/05/16 04:24:59;;;;;;;;;;;20.00;63.80;;;;;;4936834;29;19919;-60
2022/05/16 04:27:24;;;;;;;;;;;20.10;64.00;;;;;;4936897;29;19923;-60
2022/05/16 04:29:50;;;;;;;;;;;20.00;63.90;;;;;;4936953;29;20473;-61
2022/05/16 04:32:16;;;;;;;;;;;20.00;64.00;;;;;;4936907;29;19919;-61
2022/05/16 04:34:41;;;;;;;;;;;20.00;64.20;;;;;;4936842;29;19957;-60
2022/05/16 04:37:07;;;;;;;;;;;20.00;63.80;;;;;;4936797;29;19915;-60
2022/05/16 04:39:32;;;;;;;;;;;20.00;64.30;;;;;;4936887;29;19911;-60
2022/05/16 04:44:42;;;;;;;;;;;20.00;64.00;;;;;;4936498;29;19934;-60
2022/05/16 04:47:08;;;;;;;;;;;20.10;63.70;;;;;;4936823;29;20351;-60
2022/05/16 04:49:34;;;;;;;;;;;20.10;63.60;;;;;;4936553;29;19922;-60
2022/05/16 04:51:59;;;;;;;;;;;20.20;63.50;;;;;;4936309;29;19938;-61
2022/05/16 04:54:25;;;;;;;;;;;20.20;63.30;;;;;;4936527;29;19915;-61
2022/05/16 04:56:51;;;;;;;;;;;20.30;63.10;;;;;;4919142;29;19911;-61
2022/05/16 04:59:20;;;;;;;;;;;20.30;63.30;;;;;;4936492;29;19920;-61
2022/05/16 05:01:49;;;;;;;;;;;20.30;64.30;;;;;;4936344;29;19911;-60
2022/05/16 05:04:15;;;;;;;;;;;20.10;65.00;;;;;;4919547;29;20270;-61
2022/05/16 05:06:41;;;;;;;;;;;20.10;65.30;;;;;;4936351;29;19914;-61
2022/05/16 05:09:07;;;;;;;;;;;20.10;65.40;;;;;;4936298;29;19917;-61
2022/05/16 05:14:32;;;;;;;;;;;20.10;66.40;;;;;;4936733;29;19959;-61
2022/05/16 05:16:58;;;;;;;;;;;20.10;66.70;;;;;;4938926;29;19918;-62
2022/05/16 05:19:23;;;;;;;;;;;20.10;68.80;;;;;;4940207;29;19919;-62
2022/05/16 05:21:49;;;;;;;;;;;20.20;67.90;;;;;;4940318;29;20336;-61
2022/05/16 05:24:15;;;;;;;;;;;20.30;67.40;;;;;;4940068;29;19918;-61
2022/05/16 05:26:42;;;;;;;;;;;20.30;67.10;;;;;;4940115;29;19930;-61
2022/05/16 05:29:08;;;;;;;;;;;20.40;66.00;;;;;;4940206;29;19998;-61
2022/05/16 05:31:34;;;;;;;;;;;20.40;65.60;;;;;;4939595;29;19918;-60
2022/05/16 05:34:01;;;;;;;;;;;20.50;66.00;;;;;;4940143;29;20260;-60
2022/05/16 05:36:27;;;;;;;;;;;20.40;67.90;;;;;;4942902;29;19918;-61
2022/05/16 05:38:52;;;;;;;;;;;20.40;68.90;;;;;;4944333;29;19910;-60
2022/05/16 05:41:19;;;;;;;;;;;20.40;69.30;;;;;;4939830;29;19911;-61
2022/05/16 05:43:44;;;;;;;;;;;20.50;70.20;;;;;;4939723;29;19915;-62
2022/05/16 05:46:10;;;;;;;;;;;21.00;68.10;;;;;;4939574;29;19911;-60
2022/05/16 05:48:36;;;;;;;;;;;21.70;66.20;;;;;;4922377;29;19911;-62
2022/05/16 05:51:01;;;;;;;;;;;22.50;63.50;;;;;;4939256;29;20410;-61
2022/05/16 05:53:27;;;;;;;;;;;23.10;61.10;;;;;;4939519;29;20386;-62
2022/05/16 05:55:53;;;;;;;;;;;23.60;59.20;;;;;;4939684;29;19918;-65
2022/05/16 05:58:19;;;;;;;;;;;24.00;58.20;;;;;;4939447;29;19918;-76
2022/05/16 06:00:45;;;;;;;;;;;24.30;56.00;;;;;;4939363;29;19910;-72
2022/05/16 06:03:10;;;;;;;;;;;24.60;55.00;;;;;;4939236;29;19933;-70
2022/05/16 06:05:36;;;;;;;;;;;24.90;55.00;;;;;;4938753;29;20004;-75
2022/05/16 06:08:02;;;;;;;;;;;25.10;53.60;;;;;;4939068;29;19963;-76
2022/05/16 06:10:27;;;;;;;;;;;25.30;53.20;;;;;;4938611;29;19950;-77
2022/05/16 06:12:53;;;;;;;;;;;25.50;53.10;;;;;;4938965;29;19915;-74
2022/05/16 06:15:19;;;;;;;;;;;25.70;53.30;;;;;;4938914;29;19911;-76
2022/05/16 06:17:46;;;;;;;;;;;25.80;53.30;;;;;;4938852;29;19917;-78
2022/05/16 06:20:12;;;;;;;;;;;26.00;52.40;;;;;;4938908;29;19910;-73
2022/05/16 06:22:38;;;;;;;;;;;26.10;52.00;;;;;;4939162;29;20323;-77
2022/05/16 06:27:50;;;;;;;;;;;26.30;50.40;;;;;;4938156;29;19922;-77
2022/05/16 06:30:19;;;;;;;;;;;26.50;49.80;;;;;;4938713;29;19911;-71
2022/05/16 06:32:47;;;;;;;;;;;26.60;49.90;;;;;;4938528;29;19922;-74
2022/05/16 06:35:13;;;;;;;;;;;26.60;49.50;;;;;;4938803;29;20352;-79
2022/05/16 06:37:39;;;;;;;;;;;26.80;49.60;;;;;;4938806;29;20050;-76
2022/05/16 06:40:04;;;;;;;;;;;26.90;50.50;;;;;;4938533;29;20378;-77
2022/05/16 06:42:30;;;;;;;;;;;27.00;49.50;;;;;;4938320;29;20037;-79
2022/05/16 06:44:56;;;;;;;;;;;27.10;48.10;;;;;;4938554;29;19959;-80
2022/05/16 06:47:21;;;;;;;;;;;27.20;47.80;;;;;;4939239;29;19910;-74
2022/05/16 06:49:47;;;;;;;;;;;27.20;48.30;;;;;;4938378;29;19910;-73
2022/05/16 06:52:12;;;;;;;;;;;27.30;48.00;;;;;;4938444;29;20021;-74
2022/05/16 06:54:38;;;;;;;;;;;27.40;47.40;;;;;;4938245;29;19911;-70
2022/05/16 06:57:04;;;;;;;;;;;27.20;45.80;;;;;;4938120;29;19962;-66
2022/05/16 06:59:30;;;;;;;;;;;27.30;45.80;;;;;;4940626;29;19919;-67
2022/05/16 07:01:56;;;;;;;;;;;27.40;45.80;;;;;;4947326;29;19914;-68
2022/05/16 07:04:21;;;;;;;;;;;27.60;45.10;;;;;;4946027;29;19993;-67
2022/05/16 07:06:47;;;;;;;;;;;27.60;44.70;;;;;;4946257;29;20411;-65
2022/05/16 07:09:13;;;;;;;;;;;27.70;44.60;;;;;;4946259;29;19910;-67
2022/05/16 07:11:38;;;;;;;;;;;27.70;43.90;;;;;;4947175;29;19919;-69
2022/05/16 07:14:04;;;;;;;;;;;27.70;43.50;;;;;;4945992;29;19911;-62
2022/05/16 07:16:29;;;;;;;;;;;27.70;43.00;;;;;;4947753;29;20003;-65
2022/05/16 07:18:55;;;;;;;;;;;27.80;42.40;;;;;;4946916;29;19967;-65
2022/05/16 07:21:20;;;;;;;;;;;27.90;42.60;;;;;;4948263;29;20387;-70
2022/05/16 07:23:46;;;;;;;;;;;27.90;42.60;;;;;;4956717;29;20385;-64
2022/05/16 07:28:56;;;;;;;;;;;28.10;43.40;;;;;;4956530;29;19918;-64
2022/05/16 07:31:21;;;;;;;;;;;28.10;42.80;;;;;;4956737;29;19915;-63
2022/05/16 07:33:47;;;;;;;;;;;28.10;42.40;;;;;;4939943;29;19910;-65
2022/05/16 07:36:13;;;;;;;;;;;28.10;42.40;;;;;;4957039;29;19914;-70
2022/05/16 07:38:38;;;;;;;;;;;28.20;42.80;;;;;;4956545;28;20387;-74
2022/05/16 07:41:04;;;;;;;;;;;28.10;43.40;;;;;;4956629;29;19911;-63
2022/05/16 07:43:30;;;;;;;;;;;28.10;44.40;;;;;;4956857;29;19914;-62
2022/05/16 07:45:55;;;;;;;;;;;28.20;44.80;;;;;;4956738;29;20393;-63
2022/05/16 07:48:21;;;;;;;;;;;28.00;43.60;;;;;;4956704;29;19910;-61
2022/05/16 07:50:48;;;;;;;;;;;28.00;45.60;;;;;;4956164;29;19962;-62
2022/05/16 07:53:14;;;;;;;;;;;28.10;45.80;;;;;;4956892;29;19945;-65
2022/05/16 07:55:41;;;;;;;;;;;28.10;45.90;;;;;;4956599;29;19974;-63
2022/05/16 07:58:07;;;;;;;;;;;27.90;43.50;;;;;;4956435;29;19965;-63
2022/05/16 08:00:32;;;;;;;;;;;27.70;44.60;;;;;;4956348;29;19911;-62
2022/05/16 08:02:58;;;;;;;;;;;27.70;45.30;;;;;;4938840;29;19917;-71
2022/05/16 08:05:24;;;;;;;;;;;27.50;46.00;;;;;;4939079;29;20049;-64
2022/05/16 08:10:35;;;;;;;;;;;27.40;46.20;;;;;;4956368;29;19921;-61
2022/05/16 08:13:03;;;;;;;;;;;27.40;45.20;;;;;;4956246;29;19915;-63
2022/05/16 08:15:30;;;;;;;;;;;27.50;46.40;;;;;;4956134;29;19910;-61
2022/05/16 08:17:57;;;;;;;;;;;27.60;45.20;;;;;;4956096;29;19921;-62
2022/05/16 08:20:23;;;;;;;;;;;27.50;45.30;;;;;;4956373;29;19910;-65
2022/05/16 08:22:49;;;;;;;;;;;27.50;45.60;;;;;;4958751;29;19966;-61
2022/05/16 08:25:17;;;;;;;;;;;27.40;45.90;;;;;;4965947;29;19927;-62
2022/05/16 08:27:43;;;;;;;;;;;27.40;45.80;;;;;;4961456;29;19934;-69
2022/05/16 08:30:09;;;;;;;;;;;27.30;45.90;;;;;;4957347;29;19910;-62
2022/05/16 08:32:34;;;;;;;;;;;27.30;46.50;;;;;;4955333;29;20371;-62
2022/05/16 08:35:03;;;;;;;;;;;27.30;47.20;;;;;;4955489;29;19918;-63
2022/05/16 08:40:13;;;;;;;;;;;27.50;47.50;;;;;;4939871;29;19918;-65
2022/05/16 08:42:51;;;;;;;;;;;27.60;47.60;;;;;;4932382;29;19915;-67
2022/05/16 08:45:21;;;;;;;;;;;27.60;47.70;;;;;;4917760;29;20281;-67
2022/05/16 08:47:46;;;;;;;;;;;27.60;46.70;;;;;;4934802;29;19989;-67
2022/05/16 08:50:18;;;;;;;;;;;27.60;47.70;;;;;;4934556;29;19915;-67
2022/05/16 08:52:54;;;;;;;;;;;27.40;46.60;;;;;;4935476;29;19922;-69
2022/05/16 08:55:22;;;;;;;;;;;27.30;47.90;;;;;;4943825;29;19915;-64
2022/05/16 08:57:55;;;;;;;;;;;27.20;49.30;;;;;;4945719;29;19911;-67
2022/05/16 09:00:25;;;;;;;;;;;27.20;49.30;;;;;;4927581;29;19967;-67
2022/05/16 09:02:52;;;;;;;;;;;27.20;48.90;;;;;;4944277;29;19911;-68
2022/05/16 09:05:19;;;;;;;;;;;27.40;48.90;;;;;;4946183;29;20354;-65
2022/05/16 09:07:47;;;;;;;;;;;27.50;48.40;;;;;;4938482;29;19911;-67
2022/05/16 09:10:36;;;;;;;;;;;27.40;47.80;;;;;;4936209;29;19933;-66
2022/05/16 09:13:07;;;;;;;;;;;27.30;48.30;;;;;;4935647;29;19966;-66
2022/05/16 09:15:59;;;;;;;;;;;27.40;48.30;;;;;;4936247;29;19911;-68
2022/05/16 09:18:43;;;;;;;;;;;27.40;47.70;;;;;;4913603;29;19915;-73
2022/05/16 09:21:09;;;;;;;;;;;27.30;47.20;;;;;;4936097;29;19980;-65
2022/05/16 09:23:37;;;;;;;;;;;27.30;47.70;;;;;;4936134;29;19923;-68
2022/05/16 09:26:06;;;;;;;;;;;27.30;46.40;;;;;;4936018;29;19927;-69
2022/05/16 09:28:34;;;;;;;;;;;27.30;46.60;;;;;;4935795;29;19998;-64
2022/05/16 09:31:21;;;;;;;;;;;27.00;46.80;;;;;;4935358;29;19915;-64
2022/05/16 09:33:49;;;;;;;;;;;27.00;47.40;;;;;;4935765;29;19922;-64
2022/05/16 09:36:18;;;;;;;;;;;27.00;46.90;;;;;;4935482;29;19915;-64
2022/05/16 09:38:46;;;;;;;;;;;27.00;48.20;;;;;;4936029;29;19914;-64
2022/05/16 09:41:19;;;;;;;;;;;27.00;48.20;;;;;;4936022;29;20059;-64
2022/05/16 09:43:51;;;;;;;;;;;27.10;48.80;;;;;;4935790;29;19998;-64
2022/05/16 09:46:31;;;;;;;;;;;27.10;48.70;;;;;;4935825;29;19993;-65
2022/05/16 09:49:09;;;;;;;;;;;27.00;47.50;;;;;;4935741;29;19911;-65
2022/05/16 09:51:39;;;;;;;;;;;27.00;47.70;;;;;;4935632;29;19915;-66
2022/05/16 09:54:13;;;;;;;;;;;26.90;47.70;;;;;;4935813;29;19918;-65
2022/05/16 09:56:50;;;;;;;;;;;26.80;48.00;;;;;;4936002;29;19911;-64
2022/05/16 09:59:16;;;;;;;;;;;26.80;48.10;;;;;;4935760;29;20446;-65
2022/05/16 10:01:45;;;;;;;;;;;26.80;49.20;;;;;;4935674;29;19915;-64
2022/05/16 10:04:13;;;;;;;;;;;26.80;49.60;;;;;;4938469;29;19911;-65
2022/05/16 10:06:43;;;;;;;;;;;26.60;48.80;;;;;;4922070;29;19979;-65
2022/05/16 10:09:16;;;;;;;;;;;26.60;49.30;;;;;;4939311;29;19914;-65
2022/05/16 10:11:47;;;;;;;;;;;26.60;49.60;;;;;;4938951;29;19922;-65
2022/05/16 10:14:13;;;;;;;;;;;26.60;48.90;;;;;;4939289;29;19911;-64
2022/05/16 10:16:41;;;;;;;;;;;26.60;49.80;;;;;;4939177;29;19911;-65
2022/05/16 10:19:09;;;;;;;;;;;26.60;49.90;;;;;;4939168;29;20324;-66
2022/05/16 10:21:41;;;;;;;;;;;26.60;50.00;;;;;;4938864;29;20359;-65
2022/05/16 10:24:10;;;;;;;;;;;26.60;50.10;;;;;;4939369;29;19966;-66
2022/05/16 10:26:38;;;;;;;;;;;26.60;49.60;;;;;;4938841;29;19962;-66
2022/05/16 10:29:08;;;;;;;;;;;26.70;48.80;;;;;;4938679;29;19980;-66
2022/05/16 10:34:22;;;;;;;;;;;26.70;49.90;;;;;;4939273;29;19967;-66
2022/05/16 10:36:51;;;;;;;;;;;26.60;49.60;;;;;;4938664;29;19954;-65
2022/05/16 10:39:18;;;;;;;;;;;26.50;50.60;;;;;;4938557;29;20390;-67
2022/05/16 10:41:53;;;;;;;;;;;26.60;50.00;;;;;;4938555;29;19919;-66
2022/05/16 10:44:31;;;;;;;;;;;26.60;49.70;;;;;;4938577;29;19911;-67
2022/05/16 10:47:00;;;;;;;;;;;26.50;49.30;;;;;;4938536;29;19934;-66
2022/05/16 10:49:28;;;;;;;;;;;26.60;49.40;;;;;;4938279;29;19910;-67
2022/05/16 10:52:12;;;;;;;;;;;26.50;49.70;;;;;;4937960;29;19975;-65
2022/05/16 10:54:38;;;;;;;;;;;26.50;50.30;;;;;;4921059;29;19911;-66
2022/05/16 10:57:15;;;;;;;;;;;26.50;49.70;;;;;;4938103;29;19998;-66
2022/05/16 10:59:50;;;;;;;;;;;26.50;50.30;;;;;;4938160;29;19966;-67
2022/05/16 11:02:22;;;;;;;;;;;26.50;49.90;;;;;;4921267;29;19918;-71
2022/05/16 11:05:03;;;;;;;;;;;26.40;49.50;;;;;;4938071;29;19910;-69
2022/05/16 11:07:28;;;;;;;;;;;26.40;48.90;;;;;;4937910;29;19919;-69
2022/05/16 11:10:03;;;;;;;;;;;26.40;49.70;;;;;;4937861;29;19937;-73
2022/05/16 11:12:31;;;;;;;;;;;26.50;49.10;;;;;;4937974;29;20013;-62
2022/05/16 11:14:57;;;;;;;;;;;26.50;50.10;;;;;;4937402;29;19933;-62
2022/05/16 11:17:55;;;;;;;;;;;26.50;49.80;;;;;;4938163;29;20271;-62
2022/05/16 11:20:38;;;;;;;;;;;26.50;50.00;;;;;;4906187;29;19911;-64
2022/05/16 11:23:11;;;;;;;;;;;26.60;49.00;;;;;;4937773;29;19911;-64
2022/05/16 11:26:05;;;;;;;;;;;26.60;48.40;;;;;;4937622;29;19958;-63
2022/05/16 11:31:40;;;;;;;;;;;26.60;49.00;;;;;;4936947;29;20001;-62
2022/05/16 11:34:08;;;;;;;;;;;26.60;48.00;;;;;;4940989;29;19922;-65
2022/05/16 11:36:45;;;;;;;;;;;26.60;49.20;;;;;;4933708;29;19915;-68
2022/05/16 11:39:18;;;;;;;;;;;26.70;50.50;;;;;;4937309;29;19910;-63
2022/05/16 11:42:07;;;;;;;;;;;26.70;50.70;;;;;;4938885;29;20348;-62
2022/05/16 11:44:35;;;;;;;;;;;26.80;53.80;;;;;;4938130;29;20283;-62
2022/05/16 11:47:08;;;;;;;;;;;26.80;51.20;;;;;;4940457;29;20283;-68
2022/05/16 11:49:40;;;;;;;;;;;26.80;51.30;;;;;;4936599;29;19910;-64
2022/05/16 11:52:05;;;;;;;;;;;26.80;52.40;;;;;;4935899;29;19918;-65
2022/05/16 11:54:43;;;;;;;;;;;26.90;49.70;;;;;;4936410;29;19917;-65
2022/05/16 12:02:51;;;;;;;;;;;26.80;48.60;;;;;;4936390;29;19997;-65
2022/05/16 12:05:22;;;;;;;;;;;26.80;49.20;;;;;;4919286;29;19923;-69
2022/05/16 12:07:57;;;;;;;;;;;26.80;48.20;;;;;;4936000;29;19911;-66
2022/05/16 12:10:24;;;;;;;;;;;26.80;47.90;;;;;;4936149;29;19911;-65
2022/05/16 12:13:08;;;;;;;;;;;26.80;48.00;;;;;;4936190;29;19926;-65
2022/05/16 12:15:33;;;;;;;;;;;26.80;46.70;;;;;;4935831;29;19918;-62
2022/05/16 12:18:01;;;;;;;;;;;26.80;47.90;;;;;;4935768;29;19911;-61
2022/05/16 12:20:37;;;;;;;;;;;26.80;47.40;;;;;;4935653;29;20390;-63
2022/05/16 12:23:03;;;;;;;;;;;26.80;48.30;;;;;;4935823;29;19915;-62
2022/05/16 12:25:32;;;;;;;;;;;26.80;45.60;;;;;;4934851;29;19934;-64
2022/05/16 12:28:12;;;;;;;;;;;26.70;45.80;;;;;;4935437;29;19911;-60
2022/05/16 12:30:38;;;;;;;;;;;26.70;46.80;;;;;;4935305;29;19911;-62
2022/05/16 12:33:26;;;;;;;;;;;26.70;45.80;;;;;;4935662;29;19918;-61
2022/05/16 12:35:53;;;;;;;;;;;26.70;45.20;;;;;;4925778;29;19967;-60
2022/05/16 12:38:21;;;;;;;;;;;26.70;45.70;;;;;;4935816;29;20355;-61
2022/05/16 12:40:46;;;;;;;;;;;26.70;46.70;;;;;;4935354;29;19910;-60
2022/05/16 12:43:23;;;;;;;;;;;26.70;46.40;;;;;;4935332;29;20346;-62
2022/05/16 12:46:08;;;;;;;;;;;26.80;46.80;;;;;;4935282;29;19911;-62
2022/05/16 12:48:33;;;;;;;;;;;26.80;46.00;;;;;;4935181;29;20403;-61
2022/05/16 12:51:05;;;;;;;;;;;26.70;45.90;;;;;;4935364;29;20058;-60
2022/05/16 12:53:31;;;;;;;;;;;26.70;46.50;;;;;;4935118;29;19915;-66
2022/05/16 12:56:07;;;;;;;;;;;26.80;46.50;;;;;;4935392;29;19918;-63
2022/05/16 12:58:47;;;;;;;;;;;26.70;46.50;;;;;;4935118;29;19926;-61
2022/05/16 13:01:12;;;;;;;;;;;26.80;46.20;;;;;;4935429;29;19914;-62
2022/05/16 13:04:10;;;;;;;;;;;26.90;46.60;;;;;;4935156;29;20279;-65
2022/05/16 13:06:38;;;;;;;;;;;26.80;46.30;;;;;;4924482;29;20379;-64
2022/05/16 13:09:10;;;;;;;;;;;26.90;46.50;;;;;;4935776;29;19918;-63
2022/05/16 13:11:46;;;;;;;;;;;26.70;46.70;;;;;;4938601;29;20283;-60
2022/05/16 13:14:15;;;;;;;;;;;26.80;46.90;;;;;;4944083;29;20275;-60
2022/05/16 13:16:50;;;;;;;;;;;26.80;46.70;;;;;;4944017;29;20022;-58
2022/05/16 13:19:17;;;;;;;;;;;26.80;46.50;;;;;;4944272;29;19917;-62
2022/05/16 13:22:00;;;;;;;;;;;26.80;46.60;;;;;;4944691;29;19922;-59
2022/05/16 13:24:27;;;;;;;;;;;26.80;46.70;;;;;;4945684;29;19910;-61
2022/05/16 13:29:41;;;;;;;;;;;26.90;46.80;;;;;;4936265;29;20201;-60
2022/05/16 13:32:09;;;;;;;;;;;26.90;47.20;;;;;;4945734;29;20018;-61
2022/05/16 13:34:36;;;;;;;;;;;26.90;46.90;;;;;;4944808;29;20315;-59
2022/05/16 13:37:06;;;;;;;;;;;26.90;46.80;;;;;;4956417;28;19917;-59
2022/05/16 13:39:36;;;;;;;;;;;26.90;47.00;;;;;;4958692;29;19949;-65
2022/05/16 13:42:02;;;;;;;;;;;27.00;47.60;;;;;;4958741;29;19910;-59
2022/05/16 13:44:34;;;;;;;;;;;27.00;47.50;;;;;;4958559;29;19914;-60
2022/05/16 13:47:05;;;;;;;;;;;27.00;47.70;;;;;;4958586;29;19914;-59
2022/05/16 13:49:32;;;;;;;;;;;27.00;47.60;;;;;;4958621;29;20009;-59
2022/05/16 13:51:58;;;;;;;;;;;27.00;48.10;;;;;;4958637;29;20301;-62
2022/05/16 13:54:31;;;;;;;;;;;27.00;47.90;;;;;;4958701;29;20290;-58
2022/05/16 13:56:59;;;;;;;;;;;27.00;47.40;;;;;;4958548;29;19998;-58
2022/05/16 13:59:26;;;;;;;;;;;27.00;47.60;;;;;;4947266;29;19954;-63
2022/05/16 14:01:59;;;;;;;;;;;27.10;47.70;;;;;;4925516;29;19914;-60
2022/05/16 14:04:29;;;;;;;;;;;27.10;47.80;;;;;;4952217;29;20028;-61
2022/05/16 14:07:01;;;;;;;;;;;27.10;47.80;;;;;;4940156;29;19914;-60
2022/05/16 14:09:33;;;;;;;;;;;27.10;48.00;;;;;;4958306;29;19910;-61
2022/05/16 14:11:59;;;;;;;;;;;27.10;47.90;;;;;;4957746;29;19918;-61
2022/05/16 14:14:26;;;;;;;;;;;27.00;48.00;;;;;;4957864;29;19914;-61
2022/05/16 14:16:53;;;;;;;;;;;27.00;48.60;;;;;;4956585;29;20346;-59
2022/05/16 14:19:31;;;;;;;;;;;27.10;48.40;;;;;;4939098;29;19957;-59
2022/05/16 14:22:01;;;;;;;;;;;27.10;48.50;;;;;;4938286;29;19922;-59
2022/05/16 14:24:40;;;;;;;;;;;27.10;49.20;;;;;;4940479;29;19915;-60
2022/05/16 14:27:19;;;;;;;;;;;27.10;48.80;;;;;;4948648;29;19922;-59
2022/05/16 14:29:54;;;;;;;;;;;27.10;48.80;;;;;;4947054;29;19922;-58
2022/05/16 14:32:20;;;;;;;;;;;27.00;48.90;;;;;;4946165;29;20321;-60
2022/05/16 14:34:57;;;;;;;;;;;27.10;48.90;;;;;;4946937;29;19945;-59
2022/05/16 14:37:25;;;;;;;;;;;27.00;49.00;;;;;;4946793;29;19911;-58
2022/05/16 14:39:54;;;;;;;;;;;27.00;48.90;;;;;;4947590;29;19910;-60
2022/05/16 14:42:19;;;;;;;;;;;27.00;49.10;;;;;;4947854;29;20382;-62
2022/05/16 14:45:03;;;;;;;;;;;27.00;48.90;;;;;;4955125;29;19925;-60
2022/05/16 14:47:32;;;;;;;;;;;26.90;49.30;;;;;;4957807;29;19954;-58
2022/05/16 14:49:57;;;;;;;;;;;26.80;49.30;;;;;;4956921;28;19918;-58
2022/05/16 14:52:25;;;;;;;;;;;26.80;49.60;;;;;;4957417;29;20286;-62
2022/05/16 14:55:11;;;;;;;;;;;26.80;49.40;;;;;;4957285;29;19911;-62
2022/05/16 14:57:39;;;;;;;;;;;26.80;49.70;;;;;;4956827;29;20332;-61
2022/05/16 15:00:06;;;;;;;;;;;26.70;49.90;;;;;;4958114;29;20393;-60
2022/05/16 15:05:15;;;;;;;;;;;26.70;50.20;;;;;;4919174;29;20291;-60